Time;durP1;ratioP1;P1;durP2;ratioP2;P2;SDS_P1;SDS_P2;PMS_P1;PMS_P2;Temp;Humidity;BMP_temperature;BMP_pressure;BME280_temperature;BME280_humidity;BME280_pressure;Samples;Min_cycle;Max_cycle;Signal;HPM_P1;HPM_P2
2021/01/12 00:00:32;;;;;;;38.83;23.58;;;5.90;94.30;;;;;;5092967;28;20127;-77
2021/01/12 00:02:59;;;;;;;45.88;24.90;;;5.90;94.40;;;;;;5090838;28;20497;-76
2021/01/12 00:05:25;;;;;;;40.58;24.15;;;5.90;94.40;;;;;;5091549;28;20051;-77
2021/01/12 00:07:50;;;;;;;42.25;22.90;;;5.90;94.40;;;;;;5091690;28;20481;-77
2021/01/12 00:10:18;;;;;;;37.65;23.00;;;5.90;94.50;;;;;;5090530;28;20080;-77
2021/01/12 00:12:44;;;;;;;36.65;22.75;;;5.90;94.50;;;;;;5092699;28;20031;-77
2021/01/12 00:15:10;;;;;;;38.03;22.70;;;5.90;94.50;;;;;;5092105;28;20488;-77
2021/01/12 00:17:36;;;;;;;40.13;23.05;;;5.90;94.50;;;;;;5090527;28;20035;-77
2021/01/12 00:20:07;;;;;;;37.45;23.98;;;5.90;94.50;;;;;;5073975;28;20472;-77
2021/01/12 00:22:33;;;;;;;35.42;21.98;;;5.90;94.60;;;;;;5092114;28;20099;-77
2021/01/12 00:24:58;;;;;;;38.55;22.75;;;5.90;94.60;;;;;;5092688;28;20134;-76
2021/01/12 00:27:24;;;;;;;35.80;22.60;;;5.90;94.60;;;;;;5091141;28;20024;-77
2021/01/12 00:29:50;;;;;;;38.20;22.95;;;5.90;94.60;;;;;;5091554;28;20542;-77
2021/01/12 00:32:24;;;;;;;35.42;22.45;;;5.90;94.60;;;;;;5092729;28;20103;-76
2021/01/12 00:34:51;;;;;;;44.95;26.20;;;6.00;94.70;;;;;;5091089;28;20396;-76
2021/01/12 00:37:18;;;;;;;38.33;23.27;;;5.90;94.70;;;;;;5092328;28;20173;-76
2021/01/12 00:39:43;;;;;;;41.78;24.70;;;5.90;94.70;;;;;;5092396;28;20373;-76
2021/01/12 00:42:09;;;;;;;32.22;22.00;;;5.90;94.70;;;;;;5092134;28;20035;-76
2021/01/12 00:44:34;;;;;;;36.45;22.30;;;5.90;94.80;;;;;;5090437;28;20039;-77
2021/01/12 00:47:00;;;;;;;35.53;22.65;;;6.00;94.80;;;;;;5092090;28;20025;-77
2021/01/12 00:49:26;;;;;;;32.10;21.30;;;6.00;94.80;;;;;;5090379;28;20456;-77
2021/01/12 00:51:53;;;;;;;34.17;21.20;;;6.00;94.80;;;;;;5090277;28;20024;-76
2021/01/12 00:54:24;;;;;;;40.13;23.33;;;6.00;94.80;;;;;;5090568;28;20039;-76
2021/01/12 00:56:51;;;;;;;32.25;22.00;;;6.00;94.80;;;;;;5090257;28;20027;-77
2021/01/12 00:59:17;;;;;;;35.50;21.92;;;6.00;94.90;;;;;;5091063;28;20030;-76
2021/01/12 01:01:43;;;;;;;30.52;20.40;;;6.00;94.90;;;;;;5073144;28;20063;-77
2021/01/12 01:04:13;;;;;;;33.38;20.65;;;6.00;94.90;;;;;;5091220;28;20055;-77
2021/01/12 01:06:40;;;;;;;34.80;20.58;;;6.00;94.90;;;;;;5090655;28;20047;-77
2021/01/12 01:09:05;;;;;;;30.25;19.98;;;6.10;94.90;;;;;;5092635;28;20020;-77
2021/01/12 01:11:31;;;;;;;32.90;21.00;;;6.10;94.90;;;;;;5090698;28;20047;-76
2021/01/12 01:13:57;;;;;;;34.38;20.77;;;6.10;94.90;;;;;;5092335;28;20035;-77
2021/01/12 01:16:33;;;;;;;26.45;18.35;;;6.10;94.90;;;;;;5092277;28;20024;-77
2021/01/12 01:18:59;;;;;;;28.00;17.63;;;6.10;94.90;;;;;;5085689;28;20111;-76
2021/01/12 01:21:25;;;;;;;31.40;20.48;;;6.10;94.90;;;;;;5071268;28;20063;-76
2021/01/12 01:23:50;;;;;;;31.25;19.52;;;6.10;94.90;;;;;;5074211;28;20052;-76
2021/01/12 01:26:17;;;;;;;27.92;18.42;;;6.10;95.00;;;;;;5070772;28;20028;-77
2021/01/12 01:28:43;;;;;;;30.20;19.75;;;6.10;94.90;;;;;;5090344;28;20031;-77
2021/01/12 01:31:09;;;;;;;31.70;20.55;;;6.10;95.00;;;;;;5092491;28;20028;-76
2021/01/12 01:33:34;;;;;;;30.45;18.63;;;6.10;95.00;;;;;;5070942;28;20040;-76
2021/01/12 01:36:00;;;;;;;30.98;19.58;;;6.10;95.00;;;;;;5071683;28;20028;-76
2021/01/12 01:38:25;;;;;;;30.05;18.38;;;6.20;95.00;;;;;;5088425;28;20122;-77
2021/01/12 01:40:56;;;;;;;26.10;17.88;;;6.20;95.10;;;;;;5071086;28;20501;-77
2021/01/12 01:43:21;;;;;;;34.40;19.67;;;6.20;95.10;;;;;;5089491;28;20634;-76
2021/01/12 01:45:47;;;;;;;29.92;18.88;;;6.20;95.10;;;;;;5092251;28;20103;-76
2021/01/12 01:48:12;;;;;;;31.80;19.00;;;6.20;95.10;;;;;;5090816;28;20032;-76
2021/01/12 01:50:40;;;;;;;26.48;17.45;;;6.20;95.10;;;;;;5092626;28;20354;-76
2021/01/12 01:53:10;;;;;;;31.20;19.08;;;6.20;95.10;;;;;;5091140;28;20028;-76
2021/01/12 01:55:36;;;;;;;26.08;16.27;;;6.20;95.10;;;;;;5075173;28;20127;-76
2021/01/12 01:58:03;;;;;;;23.55;15.90;;;6.20;95.10;;;;;;5092203;28;20032;-76
2021/01/12 02:00:28;;;;;;;25.23;17.80;;;6.20;95.10;;;;;;5091177;28;20451;-76
2021/01/12 02:03:15;;;;;;;27.35;16.67;;;6.20;95.10;;;;;;5092804;28;20074;-76
2021/01/12 02:05:49;;;;;;;20.60;14.52;;;6.20;95.10;;;;;;5085739;28;20027;-76
2021/01/12 02:08:34;;;;;;;23.35;14.40;;;6.20;95.10;;;;;;5094755;28;20028;-76
2021/01/12 02:11:01;;;;;;;21.52;14.20;;;6.20;95.10;;;;;;5095871;28;20032;-76
2021/01/12 02:13:30;;;;;;;20.50;12.60;;;6.20;95.10;;;;;;5094670;28;20377;-77
2021/01/12 02:15:59;;;;;;;19.88;13.73;;;6.30;95.10;;;;;;5095914;28;20039;-77
2021/01/12 02:18:27;;;;;;;19.52;13.85;;;6.30;95.10;;;;;;5095864;28;20028;-77
2021/01/12 02:20:52;;;;;;;24.40;15.15;;;6.30;95.10;;;;;;5075454;28;20072;-77
2021/01/12 02:23:23;;;;;;;21.10;14.32;;;6.30;95.10;;;;;;5077673;28;20075;-77
2021/01/12 02:25:52;;;;;;;18.42;12.23;;;6.30;95.20;;;;;;5094453;28;20035;-77
2021/01/12 02:28:18;;;;;;;19.00;13.40;;;6.30;95.20;;;;;;5095522;28;20431;-76
2021/01/12 02:30:44;;;;;;;17.17;12.85;;;6.30;95.20;;;;;;5094509;28;20036;-77
2021/01/12 02:33:10;;;;;;;18.38;13.88;;;6.30;95.20;;;;;;5095584;28;20024;-76
2021/01/12 02:35:39;;;;;;;19.40;13.93;;;6.30;95.20;;;;;;5094260;28;20028;-76
2021/01/12 02:38:05;;;;;;;18.20;11.85;;;6.30;95.20;;;;;;5095737;28;20390;-76
2021/01/12 02:40:31;;;;;;;15.77;11.27;;;6.30;95.20;;;;;;5094142;28;20515;-77
2021/01/12 02:42:57;;;;;;;16.73;12.82;;;6.30;95.20;;;;;;5095512;28;20051;-77
2021/01/12 02:45:23;;;;;;;16.67;11.65;;;6.30;95.20;;;;;;5093983;28;20111;-77
2021/01/12 02:47:48;;;;;;;21.02;13.20;;;6.30;95.20;;;;;;5076617;28;20487;-76
2021/01/12 02:50:15;;;;;;;17.27;12.25;;;6.30;95.20;;;;;;5095602;28;20027;-76
2021/01/12 02:52:45;;;;;;;21.27;12.20;;;6.30;95.20;;;;;;5095311;28;20073;-76
2021/01/12 02:55:12;;;;;;;14.60;10.55;;;6.30;95.20;;;;;;5094040;28;20028;-77
2021/01/12 02:57:38;;;;;;;13.35;10.80;;;6.30;95.20;;;;;;5094554;28;20033;-77
2021/01/12 03:00:06;;;;;;;18.25;11.50;;;6.40;95.30;;;;;;5094360;28;20024;-76
2021/01/12 03:02:32;;;;;;;15.02;11.63;;;6.30;95.30;;;;;;5095079;28;20481;-77
2021/01/12 03:04:57;;;;;;;16.85;11.65;;;6.40;95.30;;;;;;5077134;28;20039;-77
2021/01/12 03:07:23;;;;;;;12.35;10.07;;;6.40;95.30;;;;;;5093503;28;20385;-77
2021/01/12 03:09:48;;;;;;;15.60;10.80;;;6.40;95.30;;;;;;5094043;28;20024;-77
2021/01/12 03:12:14;;;;;;;15.63;11.27;;;6.40;95.30;;;;;;5093202;28;20036;-76
2021/01/12 03:14:41;;;;;;;13.48;9.90;;;6.40;95.60;;;;;;5094227;28;20022;-77
2021/01/12 03:17:09;;;;;;;14.40;10.98;;;6.40;95.60;;;;;;5093286;28;20024;-76
2021/01/12 03:19:35;;;;;;;11.63;8.95;;;6.40;95.30;;;;;;5093499;28;20480;-76
2021/01/12 03:22:00;;;;;;;14.32;11.35;;;6.40;95.30;;;;;;5094139;28;20047;-76
2021/01/12 03:24:26;;;;;;;12.98;9.93;;;6.40;95.30;;;;;;5094311;28;20463;-77
2021/01/12 03:26:52;;;;;;;16.38;10.63;;;6.40;95.30;;;;;;5094189;28;20020;-76
2021/01/12 03:29:17;;;;;;;13.65;10.27;;;6.50;95.60;;;;;;5094715;28;20107;-76
2021/01/12 03:31:43;;;;;;;13.65;9.77;;;6.50;95.40;;;;;;5094886;28;20423;-76
2021/01/12 03:34:08;;;;;;;12.68;9.50;;;6.50;95.40;;;;;;5073295;28;20036;-76
2021/01/12 03:36:34;;;;;;;15.00;10.85;;;6.50;95.40;;;;;;5076411;28;20036;-76
2021/01/12 03:38:59;;;;;;;12.00;9.90;;;6.50;95.40;;;;;;5093610;28;20031;-76
2021/01/12 03:41:25;;;;;;;14.43;10.43;;;6.50;95.30;;;;;;5093225;28;20028;-76
2021/01/12 03:43:51;;;;;;;11.52;9.02;;;6.60;95.40;;;;;;5093274;28;20027;-76
2021/01/12 03:46:16;;;;;;;11.98;9.23;;;6.50;95.40;;;;;;5093530;28;20055;-76
2021/01/12 03:48:42;;;;;;;10.70;8.85;;;6.60;95.40;;;;;;5093026;28;20035;-76
2021/01/12 03:51:07;;;;;;;17.67;10.23;;;6.60;95.40;;;;;;5094637;28;20053;-76
2021/01/12 03:53:33;;;;;;;13.00;10.15;;;6.60;95.40;;;;;;5093013;28;20039;-76
2021/01/12 03:55:59;;;;;;;12.07;9.45;;;6.60;95.40;;;;;;5092851;28;20345;-76
2021/01/12 03:58:24;;;;;;;12.13;8.75;;;6.60;95.40;;;;;;5093264;28;20028;-76
2021/01/12 04:00:50;;;;;;;11.98;9.20;;;6.60;95.40;;;;;;5075929;28;20131;-76
2021/01/12 04:03:15;;;;;;;15.43;10.02;;;6.70;95.40;;;;;;5092395;28;20532;-75
2021/01/12 04:05:41;;;;;;;15.40;10.55;;;6.60;95.50;;;;;;5094010;28;20040;-76
2021/01/12 04:08:09;;;;;;;12.57;9.27;;;6.60;95.50;;;;;;5094336;28;20407;-76
2021/01/12 04:10:35;;;;;;;12.73;9.45;;;6.70;95.50;;;;;;5088124;28;20382;-76
2021/01/12 04:13:01;;;;;;;13.90;10.70;;;6.70;95.50;;;;;;5093902;28;20472;-76
2021/01/12 04:15:26;;;;;;;12.43;9.18;;;6.70;95.50;;;;;;5092686;28;20085;-76
2021/01/12 04:17:53;;;;;;;12.55;8.35;;;6.70;95.60;;;;;;5092329;28;20085;-75
2021/01/12 04:20:19;;;;;;;9.93;8.32;;;6.70;95.60;;;;;;5094000;28;20024;-76
2021/01/12 04:22:44;;;;;;;13.65;8.77;;;6.70;95.50;;;;;;5092575;28;20076;-76
2021/01/12 04:25:11;;;;;;;11.32;8.75;;;6.70;95.50;;;;;;5075910;28;20342;-76
2021/01/12 04:27:36;;;;;;;10.73;8.60;;;6.70;95.50;;;;;;5092475;28;20074;-75
2021/01/12 04:30:04;;;;;;;12.30;8.98;;;6.70;95.50;;;;;;5075675;28;20028;-76
2021/01/12 04:32:29;;;;;;;9.60;7.10;;;6.80;95.50;;;;;;5092040;28;20028;-76
2021/01/12 04:34:55;;;;;;;11.50;8.68;;;6.80;95.50;;;;;;5092431;28;20030;-76
2021/01/12 04:37:20;;;;;;;12.13;7.65;;;6.80;95.50;;;;;;5075783;28;20039;-75
2021/01/12 04:39:46;;;;;;;14.70;8.18;;;6.80;95.60;;;;;;5093741;28;20028;-76
2021/01/12 04:42:11;;;;;;;9.50;7.28;;;6.80;95.60;;;;;;5093771;28;20169;-76
2021/01/12 04:44:37;;;;;;;9.55;7.57;;;6.80;95.60;;;;;;5092437;28;20059;-76
2021/01/12 04:47:05;;;;;;;12.35;8.68;;;6.90;95.60;;;;;;5092169;28;20024;-76
2021/01/12 04:49:31;;;;;;;10.27;7.23;;;6.90;95.60;;;;;;5092169;28;20111;-76
2021/01/12 04:51:57;;;;;;;14.68;8.48;;;6.90;95.60;;;;;;5093818;28;20112;-76
2021/01/12 04:54:34;;;;;;;7.97;6.70;;;6.90;95.60;;;;;;5091678;28;20028;-76
2021/01/12 04:57:01;;;;;;;9.88;7.18;;;6.90;95.70;;;;;;5078026;28;20031;-76
2021/01/12 04:59:31;;;;;;;10.75;6.95;;;6.90;95.70;;;;;;5092096;28;20099;-76
2021/01/12 05:01:57;;;;;;;6.90;6.20;;;7.00;95.70;;;;;;5073224;28;20024;-76
2021/01/12 05:04:23;;;;;;;7.10;5.50;;;7.00;95.70;;;;;;5077965;28;20352;-75
2021/01/12 05:06:48;;;;;;;6.82;5.78;;;7.00;95.60;;;;;;5092412;28;20028;-76
2021/01/12 05:09:21;;;;;;;8.48;6.35;;;7.00;95.60;;;;;;5091874;28;20020;-76
2021/01/12 05:11:48;;;;;;;7.65;6.07;;;7.00;95.60;;;;;;5075182;28;20028;-76
2021/01/12 05:14:16;;;;;;;6.90;5.63;;;7.00;95.60;;;;;;5092870;28;20025;-76
2021/01/12 05:16:53;;;;;;;9.30;6.40;;;7.00;95.60;;;;;;5093059;28;20032;-76
2021/01/12 05:19:23;;;;;;;6.43;5.47;;;7.00;95.60;;;;;;5093376;28;20028;-76
2021/01/12 05:21:49;;;;;;;9.60;5.60;;;7.00;95.70;;;;;;5092727;28;20077;-76
2021/01/12 05:24:20;;;;;;;9.27;6.55;;;7.00;95.70;;;;;;5092547;28;20048;-76
2021/01/12 05:26:47;;;;;;;8.30;6.53;;;7.00;95.70;;;;;;5092873;28;20029;-76
2021/01/12 05:29:13;;;;;;;7.78;5.20;;;7.00;95.70;;;;;;5092581;28;20589;-76
2021/01/12 05:31:39;;;;;;;8.90;6.40;;;7.00;95.70;;;;;;5090442;28;20114;-76
2021/01/12 05:34:09;;;;;;;11.30;7.30;;;7.10;95.80;;;;;;5091210;28;20099;-76
2021/01/12 05:36:49;;;;;;;8.07;6.00;;;7.00;95.70;;;;;;5092805;28;20028;-76
2021/01/12 05:39:19;;;;;;;;;;;7.00;95.80;;;;;;5097630;28;20481;-76
2021/01/12 05:41:46;;;;;;;6.57;4.95;;;7.10;95.80;;;;;;5095353;28;19915;-76
2021/01/12 05:44:14;;;;;;;7.35;5.70;;;7.10;95.80;;;;;;5096673;28;20443;-76
2021/01/12 05:46:45;;;;;;;13.57;6.95;;;7.10;95.80;;;;;;5096711;28;20107;-76
2021/01/12 05:49:11;;;;;;;5.65;4.82;;;7.10;95.80;;;;;;5096620;28;20031;-76
2021/01/12 05:51:44;;;;;;;7.30;5.30;;;7.10;95.80;;;;;;5095342;28;20039;-76
2021/01/12 05:54:25;;;;;;;9.82;5.95;;;7.10;95.80;;;;;;5096976;28;20024;-76
2021/01/12 05:56:58;;;;;;;6.88;5.28;;;7.20;95.80;;;;;;5094639;28;20024;-76
2021/01/12 05:59:29;;;;;;;7.07;5.53;;;7.10;95.70;;;;;;5078023;28;20031;-76
2021/01/12 06:01:55;;;;;;;7.53;5.30;;;7.10;95.80;;;;;;5095497;28;20054;-76
2021/01/12 06:04:22;;;;;;;9.57;5.32;;;7.20;95.80;;;;;;5093743;28;20384;-76
2021/01/12 06:06:49;;;;;;;7.47;5.85;;;7.20;95.80;;;;;;5093126;28;20024;-76
2021/01/12 06:09:16;;;;;;;8.02;5.95;;;7.20;95.80;;;;;;5094291;28;20055;-76
2021/01/12 06:11:44;;;;;;;5.90;4.80;;;7.20;95.80;;;;;;5094136;28;20555;-76
2021/01/12 06:14:30;;;;;;;7.80;5.32;;;7.20;95.80;;;;;;5090939;28;20044;-76
2021/01/12 06:16:58;;;;;;;5.63;5.00;;;7.20;95.80;;;;;;5090498;28;20028;-76
2021/01/12 06:19:26;;;;;;;8.73;5.50;;;7.30;95.80;;;;;;5095470;28;20035;-77
2021/01/12 06:21:54;;;;;;;8.80;6.03;;;7.30;95.80;;;;;;5074273;28;20466;-76
2021/01/12 06:24:51;;;;;;;7.72;5.70;;;7.30;95.80;;;;;;5086309;28;20072;-76
2021/01/12 06:27:23;;;;;;;9.45;6.25;;;7.30;95.80;;;;;;5091653;28;20036;-76
2021/01/12 06:29:50;;;;;;;7.75;5.93;;;7.30;95.90;;;;;;5096107;28;20031;-76
2021/01/12 06:32:16;;;;;;;7.00;5.65;;;7.30;95.90;;;;;;5094867;28;20048;-76
2021/01/12 06:34:42;;;;;;;7.13;5.53;;;7.30;95.90;;;;;;5094654;28;20028;-76
2021/01/12 06:37:14;;;;;;;10.75;5.90;;;7.30;95.90;;;;;;5094820;28;20472;-76
2021/01/12 06:39:48;;;;;;;6.72;5.68;;;7.30;95.90;;;;;;5081115;28;20480;-75
2021/01/12 06:42:22;;;;;;;8.13;5.18;;;7.40;96.00;;;;;;5096037;28;20039;-75
2021/01/12 06:44:53;;;;;;;6.22;5.28;;;7.30;95.90;;;;;;5094450;28;20025;-76
2021/01/12 06:47:23;;;;;;;8.30;6.05;;;7.40;95.90;;;;;;5094367;28;20028;-76
2021/01/12 06:49:49;;;;;;;11.50;6.05;;;7.40;96.00;;;;;;5095845;28;20021;-76
2021/01/12 06:52:15;;;;;;;8.50;5.60;;;7.40;96.00;;;;;;5095472;28;20028;-76
2021/01/12 06:54:43;;;;;;;7.70;5.20;;;7.40;96.00;;;;;;5095904;28;20479;-76
2021/01/12 06:57:14;;;;;;;7.20;5.32;;;7.40;96.00;;;;;;5095382;28;20035;-76
2021/01/12 06:59:41;;;;;;;8.90;5.85;;;7.50;96.10;;;;;;5094275;28;20473;-76
2021/01/12 07:02:23;;;;;;;10.40;6.13;;;7.50;96.10;;;;;;5095406;28;20058;-76
2021/01/12 07:05:09;;;;;;;8.10;5.45;;;7.50;96.10;;;;;;5094364;28;20016;-76
2021/01/12 07:07:47;;;;;;;10.77;6.65;;;7.50;96.10;;;;;;5094514;28;20028;-76
2021/01/12 07:10:14;;;;;;;8.10;5.70;;;7.50;96.10;;;;;;5095367;28;20024;-76
2021/01/12 07:12:40;;;;;;;8.60;6.20;;;7.50;96.10;;;;;;5094064;28;20020;-76
2021/01/12 07:15:20;;;;;;;12.63;7.30;;;7.50;96.10;;;;;;5093834;28;20020;-76
2021/01/12 07:17:47;;;;;;;10.50;7.55;;;7.60;96.10;;;;;;5076393;28;20473;-76
2021/01/12 07:20:16;;;;;;;9.75;7.43;;;7.60;96.10;;;;;;5093510;28;20028;-76
2021/01/12 07:23:05;;;;;;;7.88;6.35;;;7.60;96.20;;;;;;5095121;28;20027;-76
2021/01/12 07:25:41;;;;;;;10.07;6.88;;;7.60;96.10;;;;;;5093070;28;20105;-76
2021/01/12 07:28:08;;;;;;;12.63;7.38;;;7.60;96.10;;;;;;5093568;28;20019;-76
2021/01/12 07:30:35;;;;;;;10.73;7.72;;;7.70;96.20;;;;;;5092518;28;20114;-76
2021/01/12 07:33:04;;;;;;;10.50;7.45;;;7.70;96.20;;;;;;5094958;28;20012;-76
2021/01/12 07:35:30;;;;;;;13.23;8.45;;;7.70;96.20;;;;;;5077052;28;20028;-76
2021/01/12 07:37:56;;;;;;;11.50;8.73;;;7.60;96.10;;;;;;5093616;28;20028;-76
2021/01/12 07:40:22;;;;;;;11.43;7.90;;;7.70;96.20;;;;;;5076748;28;20032;-76
2021/01/12 07:42:56;;;;;;;16.95;9.60;;;7.70;96.20;;;;;;5076476;28;20670;-76
2021/01/12 07:45:26;;;;;;;15.05;10.38;;;7.70;96.20;;;;;;5094733;28;20069;-76
2021/01/12 07:47:53;;;;;;;18.10;11.40;;;7.70;96.20;;;;;;5094633;28;20496;-76
2021/01/12 07:50:20;;;;;;;14.70;11.52;;;7.70;96.20;;;;;;5076849;28;20396;-76
2021/01/12 07:52:46;;;;;;;21.90;13.35;;;7.70;96.20;;;;;;5093312;28;20059;-76
2021/01/12 07:55:12;;;;;;;23.23;14.52;;;7.80;96.30;;;;;;5094506;28;20481;-76
2021/01/12 07:57:38;;;;;;;28.50;14.57;;;7.80;96.40;;;;;;5076327;28;20427;-76
2021/01/12 08:00:06;;;;;;;19.20;13.02;;;7.80;96.40;;;;;;5092478;28;20028;-76
2021/01/12 08:02:33;;;;;;;24.27;13.75;;;7.90;96.40;;;;;;5094398;28;20094;-76
2021/01/12 08:04:59;;;;;;;20.70;12.77;;;7.90;96.50;;;;;;5093116;28;20407;-76
2021/01/12 08:07:25;;;;;;;23.75;14.60;;;8.00;96.50;;;;;;5092866;28;20143;-76
2021/01/12 08:09:58;;;;;;;21.20;13.20;;;8.00;96.50;;;;;;5075800;28;20028;-76
2021/01/12 08:12:24;;;;;;;22.80;13.65;;;8.00;96.60;;;;;;5093629;28;20031;-76
2021/01/12 08:14:50;;;;;;;20.55;12.60;;;8.00;96.50;;;;;;5093763;28;20534;-75
2021/01/12 08:17:21;;;;;;;18.20;12.65;;;8.00;96.50;;;;;;5092279;28;20028;-76
2021/01/12 08:19:47;;;;;;;21.15;13.35;;;8.00;96.50;;;;;;5076057;28;20097;-75
2021/01/12 08:22:16;;;;;;;18.58;11.43;;;8.00;96.50;;;;;;5093959;28;20411;-75
2021/01/12 08:24:43;;;;;;;17.08;10.75;;;8.00;96.40;;;;;;5093135;28;20602;-79
2021/01/12 08:27:10;;;;;;;19.45;11.77;;;8.00;96.40;;;;;;5068837;28;20056;-79
2021/01/12 08:29:35;;;;;;;22.60;11.80;;;8.00;96.40;;;;;;5073701;28;20064;-78
2021/01/12 08:32:07;;;;;;;20.65;11.57;;;8.00;96.40;;;;;;5086195;28;20027;-78
2021/01/12 08:34:56;;;;;;;18.58;10.93;;;8.00;96.40;;;;;;5094048;28;20028;-78
2021/01/12 08:37:23;;;;;;;17.55;10.15;;;8.00;96.30;;;;;;5093639;28;20054;-79
2021/01/12 08:39:50;;;;;;;19.50;10.95;;;8.00;96.30;;;;;;5100049;28;20034;-79
2021/01/12 08:42:21;;;;;;;22.42;11.07;;;8.00;96.30;;;;;;5092402;28;20119;-78
2021/01/12 08:44:47;;;;;;;20.35;11.82;;;8.00;96.40;;;;;;5092418;28;20077;-79
2021/01/12 08:47:13;;;;;;;21.17;10.70;;;8.00;96.40;;;;;;5092436;28;20024;-79
2021/01/12 08:49:39;;;;;;;14.68;8.40;;;8.00;96.30;;;;;;5092818;28;20017;-78
2021/01/12 08:52:06;;;;;;;18.52;8.85;;;8.00;96.30;;;;;;5092249;28;20031;-78
2021/01/12 08:54:32;;;;;;;16.08;9.68;;;8.00;96.30;;;;;;5093581;28;20040;-79
2021/01/12 08:57:05;;;;;;;19.58;8.90;;;8.00;96.20;;;;;;5093379;28;20782;-79
2021/01/12 08:59:34;;;;;;;22.35;8.90;;;8.00;96.20;;;;;;5093209;28;20023;-79
2021/01/12 09:02:01;;;;;;;15.77;8.05;;;8.00;96.10;;;;;;5093355;28;20036;-79
2021/01/12 09:04:30;;;;;;;14.10;7.55;;;8.00;96.10;;;;;;5091838;28;20024;-78
2021/01/12 09:07:04;;;;;;;15.15;8.15;;;8.00;96.00;;;;;;5092155;28;20475;-79
2021/01/12 09:09:30;;;;;;;18.73;7.95;;;8.00;96.00;;;;;;5093252;28;20028;-79
2021/01/12 09:12:00;;;;;;;15.52;8.07;;;8.00;96.00;;;;;;5093397;28;20397;-79
2021/01/12 09:14:26;;;;;;;12.13;7.63;;;7.90;96.20;;;;;;5097606;28;20028;-79
2021/01/12 09:16:58;;;;;;;11.00;6.50;;;7.90;96.00;;;;;;5097420;28;20043;-79
2021/01/12 09:19:24;;;;;;;9.80;6.03;;;7.90;96.00;;;;;;5097762;28;20104;-78
2021/01/12 09:21:50;;;;;;;10.30;3.92;;;7.90;95.90;;;;;;5095894;28;20333;-82
2021/01/12 09:24:18;;;;;;;7.03;3.33;;;7.80;95.70;;;;;;5078967;28;20104;-78
2021/01/12 09:26:44;;;;;;;4.63;3.20;;;7.80;95.50;;;;;;5095604;28;20024;-77
2021/01/12 09:29:10;;;;;;;10.65;3.00;;;7.80;95.40;;;;;;5096645;28;20023;-77
2021/01/12 09:43:47;;;;;;;9.60;5.25;;;7.70;95.30;;;;;;5108605;27;20058;-77
2021/01/12 09:46:14;;;;;;;10.55;5.63;;;7.70;95.40;;;;;;5112542;28;20085;-77
2021/01/12 09:48:40;;;;;;;19.05;6.75;;;7.80;95.50;;;;;;5117192;28;20337;-77
2021/01/12 09:51:06;;;;;;;11.98;6.75;;;7.80;95.50;;;;;;5098916;28;20035;-77
2021/01/12 09:53:31;;;;;;;12.48;6.32;;;7.80;95.60;;;;;;5098965;28;20054;-77
2021/01/12 09:55:57;;;;;;;13.35;7.13;;;7.80;95.60;;;;;;5098643;28;20440;-76
2021/01/12 09:58:24;;;;;;;19.92;6.65;;;7.80;95.60;;;;;;5081510;28;20391;-76
2021/01/12 10:00:49;;;;;;;16.80;6.32;;;7.80;95.50;;;;;;5099250;27;20065;-76
2021/01/12 10:03:15;;;;;;;15.88;5.35;;;7.80;95.50;;;;;;5120811;27;20040;-77
2021/01/12 10:05:41;;;;;;;13.30;6.68;;;7.80;95.40;;;;;;5101524;27;20031;-77
2021/01/12 10:08:07;;;;;;;18.02;6.82;;;7.90;95.40;;;;;;5097721;28;20019;-78
2021/01/12 10:10:34;;;;;;;17.20;7.60;;;7.80;95.40;;;;;;5112814;28;20581;-77
2021/01/12 10:13:01;;;;;;;14.82;6.60;;;7.90;95.40;;;;;;5078388;28;20031;-77
2021/01/12 10:15:27;;;;;;;14.32;6.43;;;7.80;95.40;;;;;;5073125;28;20396;-77
2021/01/12 10:17:53;;;;;;;9.73;5.97;;;7.80;95.40;;;;;;5081165;28;20077;-76
2021/01/12 10:20:19;;;;;;;16.13;6.03;;;7.90;95.40;;;;;;5094172;28;20031;-76
2021/01/12 10:22:44;;;;;;;14.20;6.85;;;7.90;95.40;;;;;;5116249;28;20028;-76
2021/01/12 10:25:11;;;;;;;10.80;5.88;;;7.90;95.20;;;;;;5088957;27;20059;-75
2021/01/12 10:27:38;;;;;;;8.35;3.85;;;7.80;95.20;;;;;;5108547;27;20160;-76
2021/01/12 10:30:05;;;;;;;14.68;5.38;;;7.80;94.80;;;;;;5108662;27;20027;-75
2021/01/12 10:32:32;;;;;;;6.95;4.00;;;7.70;94.70;;;;;;5108029;27;20080;-75
2021/01/12 10:34:57;;;;;;;6.43;2.70;;;7.70;94.40;;;;;;5110868;27;20027;-75
2021/01/12 10:37:23;;;;;;;4.88;3.03;;;7.60;94.00;;;;;;5127282;27;20050;-75
2021/01/12 10:39:49;;;;;;;6.70;3.72;;;7.60;94.20;;;;;;5089899;27;20027;-76
2021/01/12 10:42:15;;;;;;;7.82;3.65;;;7.50;93.90;;;;;;5111842;27;20077;-75
2021/01/12 10:44:40;;;;;;;6.20;4.32;;;7.50;94.00;;;;;;5126391;27;20438;-75
2021/01/12 10:47:06;;;;;;;7.07;3.90;;;7.40;93.90;;;;;;5107607;27;20111;-75
2021/01/12 10:49:32;;;;;;;4.68;3.90;;;7.40;93.90;;;;;;5113913;27;20058;-75
2021/01/12 10:52:03;;;;;;;6.72;4.05;;;7.40;93.90;;;;;;5090489;27;20019;-75
2021/01/12 10:54:28;;;;;;;7.68;3.92;;;7.40;93.80;;;;;;5107149;27;20130;-75
2021/01/12 10:56:55;;;;;;;8.90;4.03;;;7.40;93.80;;;;;;5112715;27;20113;-76
2021/01/12 10:59:21;;;;;;;5.05;3.40;;;7.30;93.80;;;;;;5108647;27;20490;-75
2021/01/12 11:01:57;;;;;;;2.88;1.75;;;7.30;93.80;;;;;;5127516;27;20031;-75
2021/01/12 11:04:25;;;;;;;7.80;3.20;;;7.30;93.30;;;;;;5118916;27;20020;-76
2021/01/12 11:06:51;;;;;;;13.32;5.35;;;7.20;93.30;;;;;;5100138;28;20444;-75
2021/01/12 11:09:19;;;;;;;4.20;3.63;;;7.20;93.30;;;;;;5096473;27;20031;-75
2021/01/12 11:11:58;;;;;;;8.40;4.90;;;7.10;93.00;;;;;;5085977;28;20038;-75
2021/01/12 11:14:27;;;;;;;5.20;3.55;;;7.10;93.00;;;;;;5120946;27;20042;-76
2021/01/12 11:16:53;;;;;;;7.83;3.40;;;7.10;92.90;;;;;;5078778;27;20031;-76
2021/01/12 11:19:19;;;;;;;4.47;2.83;;;7.10;92.80;;;;;;5090007;27;20031;-75
2021/01/12 11:21:47;;;;;;;7.97;3.40;;;7.10;92.80;;;;;;5108119;27;20454;-75
2021/01/12 11:24:23;;;;;;;9.05;4.50;;;7.10;92.90;;;;;;5125108;27;20047;-76
2021/01/12 11:26:49;;;;;;;8.95;4.40;;;7.10;92.80;;;;;;5096368;27;20072;-76
2021/01/12 11:29:16;;;;;;;8.10;4.28;;;7.10;92.70;;;;;;5105668;27;20023;-76
2021/01/12 11:31:42;;;;;;;12.55;5.00;;;7.10;92.80;;;;;;5120929;27;20027;-75
2021/01/12 11:34:09;;;;;;;11.18;4.30;;;7.10;92.80;;;;;;5103497;27;20015;-75
2021/01/12 11:36:40;;;;;;;15.02;5.20;;;7.20;92.90;;;;;;5120779;27;20038;-76
2021/01/12 11:39:09;;;;;;;11.48;4.55;;;7.20;92.90;;;;;;5124783;27;20023;-75
2021/01/12 11:41:47;;;;;;;9.55;3.33;;;7.20;92.70;;;;;;5125504;27;20015;-76
2021/01/12 11:44:13;;;;;;;8.47;4.70;;;7.20;92.50;;;;;;5104867;27;20477;-75
2021/01/12 11:46:39;;;;;;;4.57;2.60;;;7.30;92.60;;;;;;5123430;27;20262;-75
2021/01/12 11:49:05;;;;;;;9.60;2.67;;;7.30;92.60;;;;;;5103661;27;20109;-76
2021/01/12 11:51:51;;;;;;;6.70;2.22;;;7.40;92.70;;;;;;5126741;27;20376;-76
2021/01/12 11:54:18;;;;;;;4.90;2.42;;;7.40;92.30;;;;;;5109735;28;20031;-76
2021/01/12 11:56:56;;;;;;;10.30;2.53;;;7.30;92.10;;;;;;5114866;28;20023;-76
2021/01/12 11:59:26;;;;;;;12.43;2.22;;;7.30;92.10;;;;;;5103299;28;20425;-77
2021/01/12 12:01:55;;;;;;;5.63;2.00;;;7.30;91.60;;;;;;5114706;28;20454;-76
2021/01/12 12:04:23;;;;;;;4.57;1.55;;;7.20;91.40;;;;;;5096500;28;20020;-76
2021/01/12 12:06:51;;;;;;;7.75;1.70;;;7.20;91.40;;;;;;5096390;28;20028;-76
2021/01/12 12:09:17;;;;;;;6.68;1.50;;;7.10;91.50;;;;;;5106399;27;20042;-75
2021/01/12 12:11:44;;;;;;;5.00;1.20;;;7.10;91.50;;;;;;5099760;27;20050;-76
2021/01/12 12:14:11;;;;;;;6.75;1.60;;;7.10;91.40;;;;;;5118124;27;20027;-76
2021/01/12 12:16:37;;;;;;;7.00;1.48;;;7.00;91.30;;;;;;5116569;27;20060;-76
2021/01/12 12:19:04;;;;;;;8.80;2.05;;;7.00;91.50;;;;;;5116687;27;20034;-76
2021/01/12 12:21:30;;;;;;;8.27;2.22;;;7.00;91.50;;;;;;5112996;28;20038;-76
2021/01/12 12:23:56;;;;;;;10.35;2.75;;;7.00;91.60;;;;;;5110748;28;20431;-77
2021/01/12 12:26:22;;;;;;;8.15;2.63;;;7.00;91.70;;;;;;5096213;28;20040;-76
2021/01/12 12:28:48;;;;;;;8.40;2.65;;;7.20;91.70;;;;;;5114075;28;20062;-76
2021/01/12 12:31:14;;;;;;;5.63;1.52;;;7.60;91.00;;;;;;5114275;28;20535;-76
2021/01/12 12:33:40;;;;;;;6.32;1.17;;;7.50;90.10;;;;;;5102384;28;20032;-76
2021/01/12 12:36:12;;;;;;;9.88;2.58;;;7.20;89.20;;;;;;5107275;28;20023;-76
2021/01/12 12:38:40;;;;;;;6.22;1.90;;;6.90;90.00;;;;;;5095924;28;20020;-76
2021/01/12 12:41:10;;;;;;;8.68;2.50;;;6.70;90.60;;;;;;5095909;28;20379;-76
2021/01/12 12:43:36;;;;;;;10.10;2.13;;;6.70;91.10;;;;;;5095843;28;20066;-76
2021/01/12 12:46:03;;;;;;;4.97;0.98;;;6.60;91.30;;;;;;5106321;27;20051;-76
2021/01/12 12:48:28;;;;;;;4.88;0.82;;;6.60;91.20;;;;;;5134479;27;20059;-76
2021/01/12 12:50:54;;;;;;;6.60;1.27;;;6.60;91.40;;;;;;5108179;28;20027;-76
2021/01/12 12:53:24;;;;;;;6.85;1.15;;;6.60;91.40;;;;;;5095452;28;20058;-76
2021/01/12 12:55:50;;;;;;;5.97;1.15;;;6.50;91.60;;;;;;5111038;28;20448;-76
2021/01/12 12:58:16;;;;;;;6.18;0.90;;;6.50;91.80;;;;;;5090910;28;20031;-76
2021/01/12 13:00:41;;;;;;;7.28;1.45;;;6.60;91.90;;;;;;5120185;27;20031;-76
2021/01/12 13:03:07;;;;;;;5.93;1.20;;;7.10;91.00;;;;;;5114787;27;20085;-76